Time;durP1;ratioP1;P1;durP2;ratioP2;P2;SDS_P1;SDS_P2;PMS_P1;PMS_P2;Temp;Humidity;BMP_temperature;BMP_pressure;BME280_temperature;BME280_humidity;BME280_pressure;Samples;Min_cycle;Max_cycle;Signal;HPM_P1;HPM_P2
2022/04/21 00:00:07;;;;;;;6.87;3.13;;;9.00;99.90;;;;;;5081750;28;20193;-71
2022/04/21 00:02:33;;;;;;;7.53;3.60;;;8.90;99.90;;;;;;5085154;28;20238;-71
2022/04/21 00:04:59;;;;;;;5.53;3.30;;;8.80;99.90;;;;;;5081902;28;20247;-75
2022/04/21 00:07:25;;;;;;;7.43;3.77;;;8.90;99.90;;;;;;5085578;28;20175;-70
2022/04/21 00:09:50;;;;;;;9.50;3.53;;;8.90;99.90;;;;;;5075524;28;20758;-73
2022/04/21 00:12:16;;;;;;;5.63;3.20;;;8.80;99.90;;;;;;5083594;28;20174;-70
2022/04/21 00:14:42;;;;;;;7.10;3.50;;;8.80;99.90;;;;;;5081097;28;20294;-71
2022/04/21 00:17:10;;;;;;;7.20;3.77;;;8.80;99.90;;;;;;5084051;28;20174;-70
2022/04/21 00:19:39;;;;;;;6.57;3.37;;;8.80;99.90;;;;;;5083161;28;20197;-70
2022/04/21 00:24:49;;;;;;;7.03;2.73;;;8.70;99.90;;;;;;5083008;28;20294;-70
2022/04/21 00:27:15;;;;;;;4.43;3.37;;;8.80;99.90;;;;;;5084571;28;20229;-70
2022/04/21 00:29:41;;;;;;;8.37;3.90;;;8.80;99.90;;;;;;5081131;28;20201;-72
2022/04/21 00:32:07;;;;;;;4.10;3.33;;;8.80;99.90;;;;;;5079638;28;20278;-70
2022/04/21 00:34:33;;;;;;;6.50;4.27;;;8.60;99.90;;;;;;5080786;28;20201;-70
2022/04/21 00:36:59;;;;;;;9.10;3.23;;;8.50;99.90;;;;;;5083934;28;20250;-72
2022/04/21 00:39:24;;;;;;;5.77;3.10;;;8.50;99.90;;;;;;5079823;28;20181;-71
2022/04/21 00:41:55;;;;;;;5.30;3.20;;;8.50;99.90;;;;;;5082836;28;20548;-71
2022/04/21 00:44:21;;;;;;;5.53;3.47;;;8.50;99.90;;;;;;5074448;28;20198;-70
2022/04/21 00:46:47;;;;;;;3.97;3.23;;;8.40;99.90;;;;;;5078651;28;20182;-73
2022/04/21 00:49:13;;;;;;;8.47;3.53;;;8.40;99.90;;;;;;5083125;28;20675;-72
2022/04/21 00:51:38;;;;;;;4.80;3.43;;;8.40;99.90;;;;;;5085597;28;20209;-72
2022/04/21 00:54:04;;;;;;;6.00;3.63;;;8.40;99.90;;;;;;5085546;28;20642;-70
2022/04/21 00:56:29;;;;;;;7.80;3.87;;;8.40;99.90;;;;;;5083392;28;20284;-72
2022/04/21 00:58:56;;;;;;;7.67;3.57;;;8.30;99.90;;;;;;5085333;28;20194;-74
2022/04/21 01:04:07;;;;;;;6.53;3.50;;;8.50;99.90;;;;;;5074139;28;20192;-71
2022/04/21 01:06:33;;;;;;;7.90;3.53;;;8.50;99.90;;;;;;5085004;28;20189;-71
2022/04/21 01:08:59;;;;;;;12.87;3.97;;;8.40;99.90;;;;;;5083936;28;20197;-69
2022/04/21 01:11:24;;;;;;;5.23;3.33;;;8.30;99.90;;;;;;5082854;28;20978;-68
2022/04/21 01:13:50;;;;;;;7.00;3.40;;;8.30;99.90;;;;;;5084581;28;20273;-71
2022/04/21 01:16:15;;;;;;;5.37;2.83;;;8.30;99.90;;;;;;5080896;28;20362;-70
2022/04/21 01:18:41;;;;;;;6.63;4.17;;;8.30;99.90;;;;;;5088540;28;20636;-70
2022/04/21 01:21:07;;;;;;;8.53;3.90;;;8.20;99.90;;;;;;5085739;28;20196;-71
2022/04/21 01:23:32;;;;;;;6.00;4.73;;;8.10;99.90;;;;;;5093744;28;20323;-71
2022/04/21 01:26:01;;;;;;;5.20;3.50;;;8.20;99.90;;;;;;5089867;28;20213;-73
2022/04/21 01:28:27;;;;;;;5.77;3.73;;;8.20;99.90;;;;;;5088609;28;20229;-60
2022/04/21 01:30:56;;;;;;;5.07;3.50;;;8.10;99.90;;;;;;5080915;28;20212;-80
2022/04/21 01:33:21;;;;;;;6.63;3.57;;;8.10;99.90;;;;;;5093063;28;20170;-59
2022/04/21 01:35:47;;;;;;;5.50;3.17;;;8.00;99.90;;;;;;5082280;28;20603;-59
2022/04/21 01:41:08;;;;;;;11.00;4.00;;;8.10;99.90;;;;;;5075877;28;20758;-58
2022/04/21 01:43:34;;;;;;;4.43;3.80;;;8.00;99.90;;;;;;5093087;28;20285;-60
2022/04/21 01:46:00;;;;;;;5.60;3.10;;;8.10;99.90;;;;;;5090627;28;20319;-60
2022/04/21 01:48:25;;;;;;;5.83;3.93;;;8.20;99.90;;;;;;5089041;28;20228;-61
2022/04/21 01:50:51;;;;;;;7.07;3.40;;;8.20;99.90;;;;;;5081450;28;20521;-60
2022/04/21 01:53:17;;;;;;;3.67;3.10;;;8.10;99.90;;;;;;5084608;28;20222;-59
2022/04/21 01:55:42;;;;;;;7.53;3.50;;;8.20;99.90;;;;;;5082287;28;20712;-59
2022/04/21 01:58:08;;;;;;;7.93;3.57;;;8.20;99.90;;;;;;5084810;28;20184;-59
2022/04/21 02:00:33;;;;;;;4.23;3.57;;;8.10;99.90;;;;;;5084609;28;20572;-58
2022/04/21 02:02:59;;;;;;;4.43;2.70;;;8.10;99.90;;;;;;5083069;28;20250;-59
2022/04/21 02:05:24;;;;;;;5.57;3.40;;;8.00;99.90;;;;;;5084167;28;20189;-58
2022/04/21 02:07:50;;;;;;;8.40;3.83;;;8.00;99.90;;;;;;5082229;28;20209;-59
2022/04/21 02:10:21;;;;;;;5.60;4.00;;;8.00;99.90;;;;;;5084308;28;20209;-59
2022/04/21 02:12:47;;;;;;;9.73;4.10;;;8.10;99.90;;;;;;5084435;28;20667;-61
2022/04/21 02:15:13;;;;;;;7.50;3.53;;;8.00;99.90;;;;;;5089604;28;20186;-62
2022/04/21 02:17:39;;;;;;;6.70;3.83;;;8.00;99.90;;;;;;5079715;28;20979;-60
2022/04/21 02:20:07;;;;;;;10.60;4.87;;;8.00;99.90;;;;;;5090610;28;20193;-60
2022/04/21 02:22:37;;;;;;;7.13;3.47;;;8.00;99.90;;;;;;5088366;28;20208;-61
2022/04/21 02:25:07;;;;;;;9.80;4.47;;;8.10;99.90;;;;;;5092037;28;20193;-59
2022/04/21 02:27:34;;;;;;;8.03;3.63;;;8.10;99.90;;;;;;5085486;28;20230;-59
2022/04/21 02:29:59;;;;;;;5.70;3.87;;;8.00;99.90;;;;;;5092953;28;20193;-60
2022/04/21 02:32:25;;;;;;;8.43;3.70;;;8.10;99.90;;;;;;5087255;28;20212;-60
2022/04/21 02:34:53;;;;;;;10.10;3.43;;;7.90;99.90;;;;;;5095553;28;20189;-61
2022/04/21 02:37:20;;;;;;;12.43;4.17;;;8.00;99.90;;;;;;5096761;28;20193;-59
2022/04/21 02:39:45;;;;;;;6.97;4.37;;;8.10;99.90;;;;;;5095819;28;21098;-59
2022/04/21 02:42:11;;;;;;;8.70;4.97;;;8.20;99.90;;;;;;5094459;28;20281;-60
2022/04/21 02:44:38;;;;;;;10.13;4.97;;;8.10;99.90;;;;;;5088148;28;20183;-61
2022/04/21 02:47:06;;;;;;;7.00;3.87;;;8.10;99.90;;;;;;5086064;28;20373;-59
2022/04/21 02:49:32;;;;;;;7.60;4.30;;;8.10;99.90;;;;;;5089458;28;20277;-58
2022/04/21 02:51:58;;;;;;;7.80;3.87;;;8.10;99.90;;;;;;5085756;28;20304;-59
2022/04/21 02:57:20;;;;;;;5.20;4.13;;;8.00;99.90;;;;;;5072529;28;20229;-59
2022/04/21 02:59:57;;;;;;;10.57;4.13;;;8.10;99.90;;;;;;5071180;28;20196;-58
2022/04/21 03:02:24;;;;;;;8.70;4.47;;;8.10;99.90;;;;;;5090788;28;20288;-58
2022/04/21 03:04:51;;;;;;;9.83;4.93;;;8.10;99.90;;;;;;5087795;28;20259;-59
2022/04/21 03:07:23;;;;;;;7.33;3.87;;;8.00;99.90;;;;;;5084984;28;20280;-59
2022/04/21 03:09:53;;;;;;;11.93;4.93;;;8.00;99.90;;;;;;5086902;28;20186;-59
2022/04/21 03:12:18;;;;;;;6.90;4.20;;;8.00;99.90;;;;;;5079891;28;20205;-59
2022/04/21 03:14:49;;;;;;;10.70;3.70;;;8.00;99.90;;;;;;5087358;28;20186;-59
2022/04/21 03:17:15;;;;;;;8.10;4.37;;;7.90;99.90;;;;;;5081245;28;20197;-59
2022/04/21 03:19:40;;;;;;;8.83;3.80;;;7.90;99.90;;;;;;5087060;28;20205;-59
2022/04/21 03:24:54;;;;;;;7.77;4.67;;;8.00;99.90;;;;;;5087553;28;20204;-59
2022/04/21 03:27:19;;;;;;;7.23;4.67;;;8.10;99.90;;;;;;5071077;28;20230;-59
2022/04/21 03:29:44;;;;;;;8.60;4.63;;;8.10;99.90;;;;;;5086921;28;20547;-59
2022/04/21 03:32:13;;;;;;;7.77;4.10;;;8.10;99.90;;;;;;5084971;28;20550;-59
2022/04/21 03:34:42;;;;;;;8.53;5.37;;;8.10;99.90;;;;;;5087285;28;20190;-59
2022/04/21 03:37:09;;;;;;;12.67;5.23;;;8.00;99.90;;;;;;5084906;28;20543;-59
2022/04/21 03:39:36;;;;;;;7.93;5.00;;;8.10;99.90;;;;;;5087500;28;20177;-59
2022/04/21 03:42:03;;;;;;;8.83;4.60;;;8.00;99.90;;;;;;5084905;28;20210;-59
2022/04/21 03:44:29;;;;;;;11.80;4.87;;;8.00;99.90;;;;;;5086788;28;20196;-60
2022/04/21 03:46:58;;;;;;;5.03;4.53;;;8.00;99.90;;;;;;5083901;28;20193;-60
2022/04/21 03:49:28;;;;;;;10.30;5.27;;;7.90;99.90;;;;;;5087288;28;20185;-60
2022/04/21 03:51:54;;;;;;;7.60;3.73;;;7.90;99.90;;;;;;5084539;28;20241;-59
2022/04/21 03:54:20;;;;;;;9.93;5.00;;;8.00;99.90;;;;;;5086694;28;20209;-59
2022/04/21 03:56:45;;;;;;;11.33;5.03;;;8.00;99.90;;;;;;5084554;28;20602;-59
2022/04/21 03:59:11;;;;;;;9.03;4.00;;;7.90;99.90;;;;;;5086899;28;20174;-59
2022/04/21 04:01:36;;;;;;;9.57;5.40;;;7.90;99.90;;;;;;5086275;28;20200;-58
2022/04/21 04:04:02;;;;;;;10.30;4.53;;;8.00;99.90;;;;;;5084598;28;20284;-58
2022/04/21 04:11:55;;;;;;;6.53;4.10;;;8.00;99.90;;;;;;5081749;28;20220;-58
2022/04/21 04:14:21;;;;;;;14.13;4.97;;;7.90;99.90;;;;;;5086346;28;20185;-58
2022/04/21 04:16:47;;;;;;;5.27;4.37;;;7.90;99.90;;;;;;5081815;28;20217;-59
2022/04/21 04:19:12;;;;;;;9.40;4.50;;;7.80;99.90;;;;;;5086504;28;20187;-58
2022/04/21 04:21:38;;;;;;;9.30;4.93;;;7.90;99.90;;;;;;5086150;28;20259;-58
2022/04/21 04:24:04;;;;;;;7.63;4.50;;;7.80;99.90;;;;;;5084291;28;20266;-57
2022/04/21 04:26:32;;;;;;;10.50;4.83;;;7.80;99.90;;;;;;5083538;28;20213;-59
2022/04/21 04:28:58;;;;;;;11.60;5.97;;;7.80;99.90;;;;;;5083200;28;20209;-58
2022/04/21 04:31:23;;;;;;;9.37;4.43;;;7.80;99.90;;;;;;5075067;28;20258;-58
2022/04/21 04:33:49;;;;;;;9.10;4.43;;;7.80;99.90;;;;;;5083769;28;20206;-58
2022/04/21 04:36:16;;;;;;;9.67;4.70;;;7.80;99.90;;;;;;5085677;28;20193;-58
2022/04/21 04:38:43;;;;;;;6.43;5.23;;;7.80;99.90;;;;;;5081100;28;20652;-58
2022/04/21 04:43:53;;;;;;;6.00;4.37;;;7.80;99.90;;;;;;5084075;28;20749;-58
2022/04/21 04:49:06;;;;;;;8.03;4.73;;;7.80;99.90;;;;;;5083908;28;20215;-58
2022/04/21 04:51:33;;;;;;;8.00;5.10;;;7.80;99.90;;;;;;5071460;28;20286;-58
2022/04/21 04:53:59;;;;;;;11.37;4.53;;;7.70;99.90;;;;;;5083696;28;20197;-59
2022/04/21 04:56:27;;;;;;;8.87;4.20;;;7.80;99.90;;;;;;5085180;28;20217;-59
2022/04/21 04:58:52;;;;;;;10.57;5.27;;;7.70;99.90;;;;;;5083412;28;20663;-59
2022/04/21 05:01:32;;;;;;;6.07;4.77;;;7.80;99.90;;;;;;5085402;28;20198;-59
2022/04/21 05:04:01;;;;;;;11.17;6.07;;;7.80;99.90;;;;;;5082710;28;20557;-59
2022/04/21 05:06:27;;;;;;;8.43;4.87;;;7.90;99.90;;;;;;5074721;28;20557;-58
2022/04/21 05:08:52;;;;;;;5.07;4.30;;;7.90;99.90;;;;;;5083517;28;20209;-59
2022/04/21 05:11:18;;;;;;;12.83;5.40;;;8.00;99.90;;;;;;5085068;28;20653;-58
2022/04/21 05:13:44;;;;;;;14.27;5.80;;;7.90;99.90;;;;;;5083058;28;20200;-59
2022/04/21 05:16:09;;;;;;;8.37;5.10;;;8.00;99.90;;;;;;5084295;28;20246;-59
2022/04/21 05:18:35;;;;;;;7.93;4.70;;;8.00;99.90;;;;;;5083623;28;20189;-58
2022/04/21 05:21:01;;;;;;;8.53;5.47;;;8.10;99.90;;;;;;5084773;28;20189;-58
2022/04/21 05:23:32;;;;;;;7.03;4.07;;;8.10;99.90;;;;;;5083111;28;20224;-58
2022/04/21 05:25:57;;;;;;;9.20;4.17;;;8.10;99.90;;;;;;5064851;28;20206;-59
2022/04/21 05:28:24;;;;;;;8.67;4.70;;;8.10;99.90;;;;;;5082278;28;20237;-58
2022/04/21 05:30:57;;;;;;;7.97;5.27;;;8.20;99.90;;;;;;5084468;28;20208;-58
2022/04/21 05:33:25;;;;;;;9.03;4.83;;;8.10;99.90;;;;;;5077517;28;20234;-58
2022/04/21 05:35:51;;;;;;;9.77;5.17;;;8.10;99.90;;;;;;5084818;28;20202;-58
2022/04/21 05:38:17;;;;;;;6.37;5.13;;;8.20;99.90;;;;;;5082866;28;20199;-58
2022/04/21 05:40:43;;;;;;;10.63;4.40;;;8.30;99.90;;;;;;5084747;28;20221;-59
2022/04/21 05:43:11;;;;;;;11.37;5.03;;;8.20;99.90;;;;;;5082976;28;20205;-59
2022/04/21 05:45:37;;;;;;;4.90;4.40;;;8.30;99.90;;;;;;5084615;28;20193;-59
2022/04/21 05:48:03;;;;;;;8.93;5.00;;;8.40;99.90;;;;;;5083310;28;20209;-60
2022/04/21 05:50:29;;;;;;;12.03;5.13;;;8.50;99.90;;;;;;5084246;28;20235;-59
2022/04/21 05:53:01;;;;;;;7.80;5.13;;;8.50;99.90;;;;;;5082473;28;20687;-59
2022/04/21 05:55:27;;;;;;;7.47;4.57;;;8.50;99.90;;;;;;5081913;28;20279;-59
2022/04/21 05:57:52;;;;;;;14.00;5.97;;;8.40;99.90;;;;;;5080082;28;20339;-59
2022/04/21 06:00:18;;;;;;;7.93;5.00;;;8.50;99.90;;;;;;5069205;28;20656;-59
2022/04/21 06:02:43;;;;;;;8.57;5.10;;;8.40;99.90;;;;;;5082603;28;20207;-60
2022/04/21 06:05:09;;;;;;;6.67;4.90;;;8.40;99.90;;;;;;5066430;28;20205;-60
2022/04/21 06:07:34;;;;;;;9.27;4.87;;;8.30;99.90;;;;;;5082423;28;20702;-59
2022/04/21 06:10:00;;;;;;;10.90;5.77;;;8.40;99.90;;;;;;5087272;28;20193;-59
2022/04/21 06:12:25;;;;;;;8.03;5.67;;;8.50;99.90;;;;;;5086673;28;20838;-58
2022/04/21 06:14:52;;;;;;;13.23;5.57;;;8.50;99.90;;;;;;5088342;28;20611;-59
2022/04/21 06:17:18;;;;;;;7.93;4.87;;;8.50;99.90;;;;;;5086049;28;20197;-60
2022/04/21 06:19:43;;;;;;;7.37;4.97;;;8.60;99.90;;;;;;5088426;28;20198;-59
2022/04/21 06:22:08;;;;;;;8.27;5.30;;;8.60;99.90;;;;;;5086444;28;20204;-59
2022/04/21 06:24:35;;;;;;;6.70;4.60;;;8.60;99.90;;;;;;5088509;28;20271;-60
2022/04/21 06:27:03;;;;;;;7.97;5.10;;;8.50;99.90;;;;;;5071335;28;20774;-60
2022/04/21 06:29:29;;;;;;;12.03;5.63;;;8.50;99.90;;;;;;5088678;28;20339;-59
2022/04/21 06:31:55;;;;;;;10.13;5.50;;;8.60;99.90;;;;;;5085956;28;20320;-60
2022/04/21 06:34:22;;;;;;;13.00;4.83;;;8.70;99.90;;;;;;5088571;28;20177;-58
2022/04/21 06:36:48;;;;;;;7.70;5.80;;;8.70;99.90;;;;;;5085672;28;20576;-60
2022/04/21 06:39:14;;;;;;;10.37;4.80;;;8.80;99.90;;;;;;5088243;28;20191;-59
2022/04/21 06:41:39;;;;;;;7.57;4.90;;;8.80;99.90;;;;;;5087245;28;20254;-61
2022/04/21 06:49:33;;;;;;;11.60;4.30;;;8.90;99.90;;;;;;5087944;28;20196;-60
2022/04/21 06:51:59;;;;;;;6.33;4.60;;;9.00;99.90;;;;;;5086096;28;20210;-60
2022/04/21 06:54:24;;;;;;;9.70;4.60;;;9.10;99.90;;;;;;5087774;28;20183;-58
2022/04/21 06:56:49;;;;;;;10.17;4.90;;;9.10;99.90;;;;;;5085408;28;20186;-60
2022/04/21 06:59:16;;;;;;;10.27;5.07;;;9.20;99.90;;;;;;5088245;28;20189;-59
2022/04/21 07:01:41;;;;;;;7.57;5.00;;;9.30;99.90;;;;;;5085639;28;20212;-58
2022/04/21 07:04:07;;;;;;;6.77;5.40;;;9.40;99.90;;;;;;5087490;28;20396;-66
2022/04/21 07:06:33;;;;;;;9.43;4.57;;;9.30;99.90;;;;;;5087560;28;20193;-58
2022/04/21 07:08:59;;;;;;;7.47;5.07;;;9.40;99.90;;;;;;5086028;28;20708;-60
2022/04/21 07:11:24;;;;;;;13.73;5.07;;;9.30;99.90;;;;;;5087443;28;20669;-59
2022/04/21 07:13:51;;;;;;;9.17;4.77;;;9.30;99.90;;;;;;5085080;28;20217;-59
2022/04/21 07:16:17;;;;;;;6.60;4.77;;;9.50;99.90;;;;;;5079296;28;20656;-58
2022/04/21 07:18:43;;;;;;;14.53;4.90;;;9.50;99.90;;;;;;5085896;28;20201;-60
2022/04/21 07:21:09;;;;;;;6.73;4.30;;;9.60;99.90;;;;;;5085731;28;20206;-60
2022/04/21 07:23:35;;;;;;;7.73;4.70;;;9.50;99.90;;;;;;5085107;28;20215;-59
2022/04/21 07:26:01;;;;;;;6.10;4.47;;;9.50;99.90;;;;;;5086908;28;20211;-60
2022/04/21 07:28:26;;;;;;;10.93;4.73;;;9.40;99.90;;;;;;5084465;28;20722;-60
2022/04/21 07:30:52;;;;;;;9.57;4.40;;;9.40;99.90;;;;;;5086591;28;20221;-59
2022/04/21 07:33:18;;;;;;;10.63;5.23;;;9.50;99.90;;;;;;5066697;28;20211;-59
2022/04/21 07:35:44;;;;;;;8.20;4.63;;;9.50;99.90;;;;;;5086520;28;20186;-59
2022/04/21 07:38:09;;;;;;;9.03;5.07;;;9.50;99.90;;;;;;5085264;28;20205;-58
2022/04/21 07:40:36;;;;;;;10.23;5.67;;;9.40;99.90;;;;;;5086700;28;20199;-58
2022/04/21 07:43:07;;;;;;;5.43;4.40;;;9.40;99.90;;;;;;5084764;28;20660;-59
2022/04/21 07:45:34;;;;;;;8.87;4.33;;;9.40;99.90;;;;;;5066997;28;20171;-58
2022/04/21 07:47:59;;;;;;;6.63;5.10;;;9.40;99.90;;;;;;5083962;28;20216;-59
2022/04/21 07:50:25;;;;;;;9.57;4.73;;;9.40;99.90;;;;;;5086636;28;20255;-60
2022/04/21 07:55:34;;;;;;;9.07;4.20;;;9.60;99.90;;;;;;5076729;28;20202;-61
2022/04/21 07:58:00;;;;;;;9.90;4.70;;;9.60;99.90;;;;;;5084603;28;20199;-58
2022/04/21 08:00:26;;;;;;;10.20;5.63;;;9.70;99.90;;;;;;5086800;28;20205;-59
2022/04/21 08:02:52;;;;;;;7.77;4.47;;;9.80;99.90;;;;;;5084598;28;20683;-58
2022/04/21 08:05:19;;;;;;;7.60;4.70;;;9.80;99.90;;;;;;5086498;28;20197;-59
2022/04/21 08:07:45;;;;;;;7.77;4.90;;;9.90;99.90;;;;;;5084430;28;20235;-59
2022/04/21 08:10:11;;;;;;;8.03;4.70;;;9.90;99.90;;;;;;5082187;28;20293;-59
2022/04/21 08:12:51;;;;;;;11.00;4.90;;;9.90;99.90;;;;;;5084275;28;20270;-60
2022/04/21 08:15:25;;;;;;;12.90;5.33;;;10.00;99.90;;;;;;5070239;28;20186;-58
2022/04/21 08:17:52;;;;;;;6.60;4.47;;;10.00;99.90;;;;;;5083631;28;20227;-59
2022/04/21 08:20:17;;;;;;;6.97;5.20;;;9.90;99.90;;;;;;5086761;28;20685;-59
2022/04/21 08:22:44;;;;;;;6.27;4.13;;;9.90;99.90;;;;;;5073171;28;20198;-59
2022/04/21 08:33:22;;;;;;;11.93;4.77;;;10.10;99.90;;;;;;5080560;28;20282;-60
2022/04/21 08:35:57;;;;;;;9.87;5.50;;;10.10;99.90;;;;;;5085616;28;20646;-61
2022/04/21 08:38:27;;;;;;;9.83;5.20;;;10.20;99.90;;;;;;5078108;28;20575;-59
2022/04/21 08:40:58;;;;;;;12.17;5.27;;;10.10;99.90;;;;;;5085548;28;20224;-59
2022/04/21 08:43:25;;;;;;;8.23;5.17;;;10.20;99.90;;;;;;5081362;28;20202;-60
2022/04/21 08:45:51;;;;;;;8.47;5.27;;;10.40;99.90;;;;;;5085584;28;20219;-60
2022/04/21 08:48:19;;;;;;;8.50;5.70;;;10.40;99.90;;;;;;5083829;28;20290;-60
2022/04/21 08:50:46;;;;;;;8.13;5.93;;;10.50;99.90;;;;;;5085204;28;20220;-60
2022/04/21 08:53:14;;;;;;;7.83;5.33;;;10.60;99.90;;;;;;5076777;28;20227;-60
2022/04/21 08:55:40;;;;;;;9.10;5.77;;;10.70;99.90;;;;;;5085262;28;20201;-60
2022/04/21 08:58:06;;;;;;;9.57;5.83;;;10.90;99.90;;;;;;5083528;28;20740;-59
2022/04/21 09:00:32;;;;;;;7.30;5.53;;;11.10;99.90;;;;;;5085240;28;20200;-58
2022/04/21 09:02:59;;;;;;;10.23;6.13;;;11.10;99.90;;;;;;5083416;28;20213;-58
2022/04/21 09:05:29;;;;;;;6.80;4.97;;;10.90;99.90;;;;;;5085337;28;20663;-59
2022/04/21 09:07:55;;;;;;;8.47;4.80;;;11.00;99.90;;;;;;5083169;28;20211;-58
2022/04/21 09:10:20;;;;;;;9.80;4.97;;;11.00;99.90;;;;;;5085058;28;20208;-59
2022/04/21 09:12:47;;;;;;;9.23;5.57;;;11.10;99.90;;;;;;5083058;28;20204;-59
2022/04/21 09:15:15;;;;;;;9.47;5.13;;;11.10;99.90;;;;;;5084955;28;20198;-59
2022/04/21 09:17:47;;;;;;;9.43;5.53;;;11.00;99.90;;;;;;5082546;28;20745;-60
2022/04/21 09:20:22;;;;;;;7.33;5.40;;;11.00;99.90;;;;;;5084838;28;20211;-58
2022/04/21 09:22:55;;;;;;;11.90;4.87;;;11.30;99.90;;;;;;5072384;28;20196;-58
2022/04/21 09:25:23;;;;;;;8.13;5.03;;;11.40;99.90;;;;;;5069073;28;20652;-59
2022/04/21 09:27:48;;;;;;;7.87;4.60;;;11.40;99.90;;;;;;5082464;28;20229;-59
2022/04/21 09:30:15;;;;;;;6.63;4.57;;;11.50;99.90;;;;;;5073638;28;20203;-59
2022/04/21 09:32:54;;;;;;;9.30;5.73;;;11.60;99.90;;;;;;5082511;28;20568;-59
2022/04/21 09:35:28;;;;;;;9.63;5.93;;;11.70;99.90;;;;;;5047325;28;20189;-59
2022/04/21 09:37:58;;;;;;;7.87;5.50;;;11.60;99.90;;;;;;5074451;28;20187;-59
2022/04/21 09:40:26;;;;;;;8.63;6.83;;;11.60;99.90;;;;;;5080665;28;20262;-59
2022/04/21 09:42:57;;;;;;;8.10;5.73;;;11.60;99.90;;;;;;5082367;28;20214;-61
2022/04/21 09:48:31;;;;;;;7.57;5.17;;;11.60;99.90;;;;;;5080793;28;20207;-60
2022/04/21 09:51:08;;;;;;;7.93;6.00;;;11.70;99.90;;;;;;5082260;28;20216;-59
2022/04/21 09:53:45;;;;;;;8.63;6.07;;;11.80;99.90;;;;;;5086599;28;20202;-62
2022/04/21 09:56:10;;;;;;;13.80;6.77;;;11.90;99.90;;;;;;5084536;28;20196;-59
2022/04/21 09:58:39;;;;;;;5.97;5.33;;;11.90;99.90;;;;;;5087709;28;20200;-60
2022/04/21 10:01:06;;;;;;;7.07;4.93;;;11.90;99.90;;;;;;5084614;28;20296;-60
2022/04/21 10:03:34;;;;;;;8.07;5.10;;;11.90;99.90;;;;;;5085345;28;20217;-59
2022/04/21 10:06:01;;;;;;;8.83;5.40;;;11.80;99.90;;;;;;5084743;28;20255;-60
2022/04/21 10:08:29;;;;;;;9.93;6.33;;;11.70;99.90;;;;;;5085730;28;20199;-65
2022/04/21 10:10:58;;;;;;;13.17;6.93;;;11.80;99.90;;;;;;5082912;28;20213;-65
2022/04/21 10:13:23;;;;;;;7.37;6.10;;;11.70;99.90;;;;;;5088192;28;20639;-68
2022/04/21 10:15:52;;;;;;;9.40;6.47;;;11.70;99.90;;;;;;5084984;28;20208;-68
2022/04/21 10:18:19;;;;;;;10.53;6.50;;;11.70;99.90;;;;;;5081551;28;20184;-66
2022/04/21 10:20:45;;;;;;;10.13;6.20;;;11.70;99.90;;;;;;5080618;28;20257;-68
2022/04/21 10:23:16;;;;;;;8.07;6.20;;;11.70;99.90;;;;;;5085494;28;20203;-70
2022/04/21 10:25:42;;;;;;;9.70;7.50;;;11.70;99.90;;;;;;5083709;28;20211;-67
2022/04/21 10:28:34;;;;;;;10.47;7.00;;;11.70;99.90;;;;;;5068887;28;20586;-70
2022/04/21 10:31:27;;;;;;;6.80;6.10;;;11.60;99.90;;;;;;5078159;28;20211;-67
2022/04/21 10:33:54;;;;;;;8.30;7.27;;;11.50;99.90;;;;;;5079514;28;20183;-68
2022/04/21 10:37:07;;;;;;;10.43;7.50;;;11.60;99.90;;;;;;5080138;28;20589;-69
2022/04/21 10:39:32;;;;;;;11.93;6.93;;;11.80;99.90;;;;;;5000563;28;20226;-73
2022/04/21 10:42:07;;;;;;;8.87;7.43;;;11.90;99.90;;;;;;5061411;28;20225;-69
2022/04/21 10:44:41;;;;;;;9.33;6.83;;;11.90;99.90;;;;;;5081144;28;20245;-71
2022/04/21 10:47:25;;;;;;;9.50;7.73;;;11.90;99.90;;;;;;5080082;28;20187;-70
2022/04/21 10:49:59;;;;;;;9.80;7.10;;;12.00;99.90;;;;;;5085623;28;20201;-68
2022/04/21 10:57:50;;;;;;;8.33;6.27;;;12.20;99.90;;;;;;5087433;28;20361;-69
2022/04/21 11:00:29;;;;;;;10.83;7.50;;;12.30;99.90;;;;;;5085413;28;20208;-70
2022/04/21 11:03:09;;;;;;;13.80;7.03;;;12.70;99.90;;;;;;5086894;28;20196;-68
2022/04/21 11:05:38;;;;;;;8.23;7.53;;;12.80;99.90;;;;;;5083873;28;20748;-70
2022/04/21 11:08:11;;;;;;;10.77;8.53;;;12.70;99.90;;;;;;5087105;28;20185;-70
2022/04/21 11:10:39;;;;;;;13.23;8.53;;;12.60;99.90;;;;;;5083933;28;20217;-70
2022/04/21 11:13:06;;;;;;;12.33;9.77;;;12.80;99.90;;;;;;5086739;28;20193;-71
2022/04/21 11:15:47;;;;;;;12.27;10.63;;;12.90;99.90;;;;;;5085670;28;20208;-71
2022/04/21 11:18:29;;;;;;;12.27;10.77;;;13.10;99.90;;;;;;5067007;28;20544;-72
2022/04/21 11:21:27;;;;;;;9.27;8.23;;;13.30;99.90;;;;;;5080440;28;20240;-71
2022/04/21 11:23:52;;;;;;;10.30;7.37;;;13.40;99.90;;;;;;5087619;28;20201;-71
2022/04/21 11:26:25;;;;;;;8.63;7.73;;;13.60;99.90;;;;;;5083463;28;20213;-71
2022/04/21 11:28:51;;;;;;;11.63;9.27;;;13.90;99.90;;;;;;5085178;28;20361;-71
2022/04/21 11:31:20;;;;;;;13.83;8.90;;;13.90;99.90;;;;;;5085407;28;20303;-70
2022/04/21 11:33:48;;;;;;;8.73;6.90;;;14.00;99.90;;;;;;5086743;28;20193;-72
2022/04/21 11:36:15;;;;;;;10.83;8.47;;;14.20;99.90;;;;;;5084993;28;20198;-69
2022/04/21 11:38:47;;;;;;;8.17;7.40;;;14.30;99.90;;;;;;5087096;28;20284;-72
2022/04/21 11:41:13;;;;;;;9.90;7.37;;;14.40;99.90;;;;;;5081759;28;20209;-71
2022/04/21 11:43:50;;;;;;;8.97;8.17;;;14.40;99.90;;;;;;5087222;28;20233;-70
2022/04/21 11:46:18;;;;;;;8.90;7.97;;;14.40;99.90;;;;;;5085086;28;20761;-71
2022/04/21 11:48:44;;;;;;;9.13;7.27;;;14.60;99.90;;;;;;5086622;28;20198;-71
2022/04/21 11:51:11;;;;;;;10.87;6.50;;;14.70;99.90;;;;;;5084421;28;20793;-69
2022/04/21 11:53:41;;;;;;;11.90;8.70;;;14.80;99.90;;;;;;5091639;28;20185;-70
2022/04/21 11:56:09;;;;;;;7.10;6.47;;;14.70;99.90;;;;;;5088077;28;20205;-70
2022/04/21 11:58:40;;;;;;;9.03;6.73;;;14.60;99.90;;;;;;5085907;28;20610;-70
2022/04/21 12:06:57;;;;;;;7.97;6.77;;;13.70;99.90;;;;;;5073696;28;20591;-67
2022/04/21 12:09:28;;;;;;;7.57;6.87;;;13.50;99.90;;;;;;5076714;28;20232;-67
2022/04/21 12:11:53;;;;;;;8.50;6.60;;;13.50;99.90;;;;;;5085539;28;20683;-67
2022/04/21 12:14:19;;;;;;;9.43;6.03;;;13.30;99.90;;;;;;5083946;28;20185;-68
2022/04/21 12:16:52;;;;;;;8.43;6.83;;;13.20;99.90;;;;;;5085601;28;20682;-67
2022/04/21 12:19:41;;;;;;;7.30;6.60;;;13.20;99.90;;;;;;5083895;28;20224;-67
2022/04/21 12:22:20;;;;;;;10.53;7.00;;;13.20;99.90;;;;;;5085951;28;20201;-62
2022/04/21 12:24:50;;;;;;;8.03;6.73;;;13.60;99.90;;;;;;5086037;28;20312;-67
2022/04/21 12:27:34;;;;;;;6.80;6.10;;;13.80;99.90;;;;;;5085380;28;20308;-67
2022/04/21 12:30:05;;;;;;;9.90;7.00;;;13.80;99.90;;;;;;5071127;28;20189;-68
2022/04/21 12:32:33;;;;;;;12.23;6.90;;;13.70;99.90;;;;;;5083685;28;20213;-67
2022/04/21 12:35:06;;;;;;;10.93;7.17;;;13.80;99.90;;;;;;5086207;28;20302;-67
2022/04/21 12:37:37;;;;;;;8.97;6.10;;;13.80;99.90;;;;;;5082311;28;20322;-65
2022/04/21 12:40:14;;;;;;;6.80;6.10;;;13.50;99.90;;;;;;5085687;28;20194;-68
2022/04/21 12:42:40;;;;;;;8.93;6.27;;;13.40;99.90;;;;;;5066780;28;20209;-69
2022/04/21 12:45:08;;;;;;;7.47;6.70;;;13.30;99.90;;;;;;5085651;28;20568;-69
2022/04/21 12:47:43;;;;;;;7.77;6.63;;;13.20;99.90;;;;;;5083463;28;20193;-70
2022/04/21 12:50:12;;;;;;;8.47;7.37;;;13.20;99.90;;;;;;5085090;28;20195;-66
2022/04/21 12:52:44;;;;;;;11.60;8.23;;;13.10;99.90;;;;;;5082802;28;20685;-67
2022/04/21 12:55:11;;;;;;;8.07;5.60;;;13.10;99.90;;;;;;5084617;28;20194;-66
2022/04/21 12:57:38;;;;;;;10.63;7.07;;;13.00;99.90;;;;;;5082805;28;20208;-66
2022/04/21 13:00:09;;;;;;;7.17;6.20;;;13.10;99.90;;;;;;5084299;28;20224;-66
2022/04/21 13:02:35;;;;;;;10.40;8.07;;;13.00;99.90;;;;;;5082515;28;20205;-66
2022/04/21 13:05:00;;;;;;;11.67;8.40;;;13.00;99.90;;;;;;5078916;28;20211;-67
2022/04/21 13:07:27;;;;;;;10.70;7.17;;;12.90;99.90;;;;;;5082895;28;20201;-66
2022/04/21 13:09:53;;;;;;;10.73;7.40;;;12.90;99.90;;;;;;5084509;28;20201;-67
2022/04/21 13:12:18;;;;;;;9.10;7.93;;;13.10;99.90;;;;;;5082844;28;20635;-65
2022/04/21 13:14:44;;;;;;;8.23;7.43;;;13.10;99.90;;;;;;5084620;28;20201;-66
2022/04/21 13:17:09;;;;;;;11.07;8.20;;;13.10;99.90;;;;;;5081833;28;20205;-66
2022/04/21 13:19:35;;;;;;;7.30;6.60;;;13.00;99.90;;;;;;5082909;28;20726;-68
2022/04/21 13:22:01;;;;;;;9.00;6.60;;;12.90;99.90;;;;;;5082519;28;20201;-66
2022/04/21 13:24:31;;;;;;;7.83;7.03;;;12.90;99.90;;;;;;5084511;28;20197;-66
2022/04/21 13:26:58;;;;;;;7.37;6.77;;;13.00;99.90;;;;;;5081367;28;20221;-67
2022/04/21 13:29:24;;;;;;;6.07;4.97;;;13.00;99.90;;;;;;5084308;28;20188;-67
2022/04/21 13:34:35;;;;;;;5.80;4.90;;;13.00;99.90;;;;;;5076736;28;20712;-67
2022/04/21 13:37:02;;;;;;;4.67;4.23;;;13.00;99.90;;;;;;5081888;28;20761;-69
2022/04/21 13:39:29;;;;;;;4.70;4.03;;;13.00;99.90;;;;;;5084106;28;20197;-67
2022/04/21 13:41:54;;;;;;;5.27;4.77;;;13.00;99.90;;;;;;5082376;28;20213;-68
2022/04/21 13:44:20;;;;;;;6.97;5.50;;;13.00;99.90;;;;;;5084337;28;20255;-68
2022/04/21 13:46:46;;;;;;;7.30;6.43;;;13.20;99.90;;;;;;5082321;28;20201;-68
2022/04/21 13:49:12;;;;;;;7.97;5.70;;;13.30;99.90;;;;;;5079884;28;20934;-66
2022/04/21 13:51:38;;;;;;;5.33;4.93;;;13.30;99.90;;;;;;5081362;28;20256;-66